createdAt,value
2023-03-14T00:02:04.167Z,49.25
2023-03-14T00:05:08.423Z,49.45
2023-03-14T00:08:11.576Z,49.69
2023-03-14T00:11:18.046Z,49.42
2023-03-14T00:14:20.757Z,49.51
2023-03-14T00:17:24.246Z,49.69
2023-03-14T00:20:29.390Z,49.92
2023-03-14T00:23:34.310Z,50.36
2023-03-14T00:26:36.792Z,50.56
2023-03-14T00:29:39.813Z,50.73
2023-03-14T00:32:42.814Z,50.96
2023-03-14T00:36:12.542Z,51.02
2023-03-14T00:39:15.473Z,51.24
2023-03-14T00:42:18.414Z,51.35
2023-03-14T00:45:21.027Z,51.52
2023-03-14T00:48:24.055Z,51.57
2023-03-14T00:51:26.831Z,51.75
2023-03-14T00:54:31.897Z,51.56
2023-03-14T00:57:37.672Z,51.49
2023-03-14T01:00:42.139Z,51.73
2023-03-14T01:03:45.123Z,51.89
2023-03-14T01:06:48.244Z,52.15
2023-03-14T01:09:53.399Z,52.27
2023-03-14T01:12:56.366Z,52.43
2023-03-14T01:16:07.614Z,52.64
2023-03-14T01:19:13.345Z,52.98
2023-03-14T01:22:16.203Z,53.03
2023-03-14T01:25:19.509Z,52.98
2023-03-14T01:28:22.797Z,53.34
2023-03-14T01:31:26.673Z,53.55
2023-03-14T01:34:31.318Z,53.71
2023-03-14T01:37:34.476Z,53.79
2023-03-14T01:40:45.518Z,54.15
2023-03-14T01:43:51.796Z,54.39
2023-03-14T01:46:54.506Z,54.57
2023-03-14T01:50:02.767Z,54.90
2023-03-14T01:53:05.944Z,55.10
2023-03-14T01:56:12.512Z,55.40
2023-03-14T01:59:15.269Z,55.50
2023-03-14T02:02:18.512Z,55.88
2023-03-14T02:05:25.504Z,55.88
2023-03-14T02:08:30.774Z,56.34
2023-03-14T02:11:35.540Z,56.64
2023-03-14T02:14:38.964Z,56.40
2023-03-14T02:17:45.473Z,56.67
2023-03-14T02:21:02.041Z,56.73
2023-03-14T02:24:13.698Z,57.09
2023-03-14T02:27:18.954Z,57.35
2023-03-14T02:30:28.780Z,57.39
2023-03-14T02:33:32.317Z,57.72
2023-03-14T02:36:35.685Z,57.81
2023-03-14T02:39:42.908Z,58.12
2023-03-14T02:42:46.467Z,58.11
2023-03-14T02:45:50.708Z,58.41
2023-03-14T02:49:03.023Z,58.18
2023-03-14T02:52:08.471Z,58.14
2023-03-14T02:55:11.637Z,58.29
2023-03-14T02:58:15.960Z,58.23
2023-03-14T03:01:19.750Z,58.32
2023-03-14T03:04:22.638Z,58.28
2023-03-14T03:07:25.640Z,58.53
2023-03-14T03:10:31.093Z,58.72
2023-03-14T03:13:34.341Z,59.05
2023-03-14T03:16:37.346Z,59.05
2023-03-14T03:19:41.422Z,59.39
2023-03-14T03:22:46.279Z,59.37
2023-03-14T03:25:52.720Z,59.21
2023-03-14T03:28:55.797Z,58.99
2023-03-14T03:32:00.708Z,58.91
2023-03-14T03:35:05.997Z,58.28
2023-03-14T03:38:10.726Z,58.36
2023-03-14T03:41:13.894Z,57.94
2023-03-14T03:44:16.921Z,57.94
2023-03-14T03:47:20.469Z,57.98
2023-03-14T03:50:26.783Z,58.08
2023-03-14T03:53:33.670Z,57.88
2023-03-14T03:56:37.503Z,58.03
2023-03-14T03:59:42.090Z,57.28
2023-03-14T04:02:45.384Z,57.17
2023-03-14T04:06:11.952Z,56.89
2023-03-14T04:09:15.438Z,56.84
2023-03-14T04:12:18.506Z,56.75
2023-03-14T04:15:22.937Z,56.41
2023-03-14T04:18:27.070Z,56.40
2023-03-14T04:21:32.879Z,56.36
2023-03-14T04:24:39.870Z,56.48
2023-03-14T04:27:43.310Z,56.43
2023-03-14T05:00:57.096Z,56.35
2023-03-14T05:04:00.635Z,56.48
2023-03-14T05:07:04.280Z,56.36
2023-03-14T05:10:11.779Z,56.75
2023-03-14T05:13:18.105Z,57.29
2023-03-14T05:22:07.736Z,57.64
2023-03-14T05:25:11.225Z,57.68
2023-03-14T05:28:14.979Z,57.64
2023-03-14T05:32:28.026Z,57.13
2023-03-14T05:36:32.347Z,56.65
2023-03-14T05:40:13.270Z,56.00
2023-03-14T05:43:18.198Z,55.47
2023-03-14T05:46:26.389Z,55.03
2023-03-14T05:55:05.114Z,53.23
2023-03-14T05:58:10.133Z,52.26
2023-03-14T06:01:13.876Z,51.62
2023-03-14T06:04:18.267Z,50.44
2023-03-14T06:07:24.101Z,48.26
2023-03-14T06:10:30.793Z,46.61
2023-03-14T06:13:36.209Z,45.56
2023-03-14T06:17:35.324Z,44.68
2023-03-14T06:20:46.077Z,44.14
2023-03-14T06:25:07.934Z,43.64
2023-03-14T06:28:11.219Z,43.11
2023-03-14T06:31:14.523Z,42.33
2023-03-14T06:34:18.792Z,42.46
2023-03-14T06:37:23.772Z,42.66
2023-03-14T06:40:40.062Z,43.12
2023-03-14T06:43:49.422Z,44.18
2023-03-14T06:46:53.231Z,45.33
2023-03-14T06:49:58.718Z,44.82
2023-03-14T06:53:02.145Z,45.20
2023-03-14T06:56:06.011Z,45.99
2023-03-14T06:59:12.244Z,47.29
2023-03-14T07:02:16.800Z,47.42
2023-03-14T07:05:20.998Z,47.62
2023-03-14T07:08:25.230Z,47.53
2023-03-14T07:11:36.939Z,47.17
2023-03-14T07:23:35.200Z,46.49
2023-03-14T07:26:42.831Z,45.17
2023-03-14T07:29:49.626Z,44.66
2023-03-14T07:32:59.008Z,44.21
2023-03-14T07:36:04.744Z,44.64
2023-03-14T07:39:08.075Z,43.99
2023-03-14T07:42:12.150Z,42.96
2023-03-14T07:45:18.189Z,41.72
2023-03-14T07:48:22.728Z,41.61
2023-03-14T07:51:25.496Z,41.90
2023-03-14T07:54:28.666Z,41.82
2023-03-14T07:57:31.524Z,42.03
2023-03-14T08:01:00.921Z,42.30
2023-03-14T08:04:47.325Z,41.99
2023-03-14T08:08:17.192Z,43.11
2023-03-14T08:12:06.046Z,41.13
2023-03-14T08:15:35.393Z,40.83
2023-03-14T08:19:06.900Z,40.81
2023-03-14T08:23:06.441Z,40.53
2023-03-14T08:26:31.749Z,40.85
2023-03-14T08:29:36.674Z,41.56
2023-03-14T08:33:04.804Z,40.63
2023-03-14T08:36:12.027Z,39.67
2023-03-14T08:39:25.973Z,38.51
2023-03-14T08:42:29.022Z,37.15
2023-03-14T08:49:12.941Z,35.89
2023-03-14T08:52:30.691Z,35.56
2023-03-14T08:55:35.439Z,35.17
2023-03-14T09:08:02.149Z,36.48
2023-03-14T09:24:28.966Z,34.65
2023-03-14T09:32:12.636Z,34.75
2023-03-14T09:35:23.338Z,34.82
2023-03-14T09:38:53.886Z,34.51
2023-03-14T09:51:25.466Z,34.06
2023-03-14T09:55:41.598Z,34.62
2023-03-14T09:59:42.789Z,33.96
2023-03-14T10:07:57.199Z,34.65
2023-03-14T10:15:29.837Z,33.17
2023-03-14T10:38:26.551Z,33.55
2023-03-14T11:22:59.565Z,33.81
2023-03-14T11:26:02.278Z,32.78
2023-03-14T11:29:48.898Z,31.29
2023-03-14T11:32:51.478Z,30.38
2023-03-14T17:27:49.459Z,81.10
2023-03-14T17:37:47.775Z,89.05
2023-03-14T17:46:32.066Z,89.12
2023-03-14T17:50:43.617Z,92.01
2023-03-14T17:54:42.846Z,91.76
2023-03-14T17:57:52.937Z,91.70
2023-03-14T18:15:52.536Z,93.55
2023-03-14T18:36:12.113Z,93.48
2023-03-14T19:10:21.732Z,94.16
2023-03-14T19:13:26.086Z,95.52
2023-03-14T19:16:29.257Z,93.87
2023-03-14T19:19:32.599Z,93.50
2023-03-14T19:30:43.264Z,91.90
2023-03-14T19:53:48.526Z,87.10
2023-03-14T20:09:14.257Z,100.00
2023-03-14T20:17:10.439Z,100.00
2023-03-14T21:45:45.828Z,100.00
2023-03-14T21:48:52.075Z,100.00
2023-03-14T21:51:54.751Z,100.00
2023-03-14T21:54:57.683Z,100.00
2023-03-14T21:58:02.946Z,100.00
2023-03-14T22:01:10.360Z,100.00
2023-03-14T22:04:13.729Z,100.00
2023-03-14T22:07:19.982Z,100.00
2023-03-14T22:10:25.084Z,100.00
2023-03-14T22:13:27.812Z,100.00
2023-03-14T22:16:31.929Z,100.00
2023-03-14T22:19:35.734Z,100.00
2023-03-14T22:22:38.824Z,100.00
2023-03-14T22:25:46.971Z,100.00
2023-03-14T22:28:52.657Z,100.00
2023-03-14T22:31:56.391Z,100.00
2023-03-14T22:35:23.333Z,100.00
2023-03-14T22:38:26.516Z,100.00
2023-03-14T22:41:30.334Z,100.00
2023-03-14T22:44:33.257Z,100.00
2023-03-14T22:47:36.017Z,100.00
2023-03-14T22:50:41.415Z,100.00
2023-03-14T22:53:46.467Z,100.00
2023-03-14T22:56:52.270Z,100.00
2023-03-14T22:59:56.428Z,100.00
2023-03-14T23:02:59.885Z,100.00
2023-03-14T23:06:05.485Z,100.00
2023-03-14T23:09:09.634Z,100.00
2023-03-14T23:12:17.618Z,100.00
2023-03-14T23:15:21.400Z,100.00
2023-03-14T23:18:27.413Z,100.00
2023-03-14T23:21:30.927Z,100.00
2023-03-14T23:24:34.964Z,100.00
2023-03-14T23:27:38.555Z,100.00
2023-03-14T23:30:41.998Z,100.00
2023-03-14T23:33:47.021Z,100.00
2023-03-14T23:37:14.382Z,100.00
2023-03-14T23:41:15.893Z,100.00
2023-03-14T23:44:26.801Z,100.00
2023-03-14T23:47:37.252Z,100.00
2023-03-14T23:55:06.072Z,100.00
2023-03-14T23:58:36.806Z,100.00
